Bow Island Climate, Alberta

Past 24 Hour Conditions

Date / Time
(MDT)
Conditions Temp
(°F)
Humidity
(%)
Dew Point
(°F)
Wind
(mph)
Pressure
(inches)
Visibility
(miles)
25 October 2014
20:00 N/A 54 58 39 SSE 11 N/A N/A
19:00 N/A 53 57 38 SE 9 N/A N/A
18:00 N/A 55 52 38 SE 10 N/A N/A
17:00 N/A 57 46 37 SE 15 N/A N/A
16:00 N/A 58   42 35 SE 19 N/A N/A
15:00 N/A 57 42 34 SE 16 N/A N/A
14:00 N/A 55 41 32 SE 18 N/A N/A
13:00 N/A 52 43 31 SE 13 N/A N/A
12:00 N/A 50 45 29 SE 15 N/A N/A
11:00 N/A 47 50 30 SE 12 N/A N/A
10:00 N/A 43 64 32 SE 8 N/A N/A
9:00 N/A 39 73 31 SE 8 N/A N/A
8:00 N/A 38 78 32 SE 5 N/A N/A
7:00 N/A 39 77 32 SE 6 N/A N/A
6:00 N/A 38 80 32 SE 6 N/A N/A
5:00 N/A 36 79 30 S 4 N/A N/A
4:00 N/A 34   75 27 S 5 N/A N/A
3:00 N/A 34   74 27 WNW 2 N/A N/A
2:00 N/A 37 70 29 calm N/A N/A
1:00 N/A 38 68 28 WSW 3 N/A N/A
00:00 N/A 42 58 28 WSW 6 N/A N/A
24 October 2014
23:00 N/A 42 55 27 WSW 7 N/A N/A
22:00 N/A 42 54 27 WSW 7 N/A N/A
21:00 N/A 43 50 26 SW 3 N/A N/A
20:00 N/A 47 45 26 W 8 N/A N/A
N/A Not available
↑ Highest temperature
↓ Lowest temperature

If you require additional historical weather information, please visit Climate Data Online.

Date modified: